sensor_id;sensor_type;location;lat;lon;timestamp;P1;durP1;ratioP1;P2;durP2;ratioP2
32333;SDS011;18810;53.040;8.850;2022-08-04T00:00:00;35.83;;;18.33;;
32333;SDS011;18810;53.040;8.850;2022-08-04T00:11:08;30.13;;;16.17;;
32333;SDS011;18810;53.040;8.850;2022-08-04T00:13:37;24.60;;;15.82;;
32333;SDS011;18810;53.040;8.850;2022-08-04T00:16:08;33.13;;;17.95;;
32333;SDS011;18810;53.040;8.850;2022-08-04T00:18:41;32.75;;;18.23;;
32333;SDS011;18810;53.040;8.850;2022-08-04T00:21:18;33.85;;;18.23;;
32333;SDS011;18810;53.040;8.850;2022-08-04T00:23:46;29.63;;;17.63;;
32333;SDS011;18810;53.040;8.850;2022-08-04T00:26:15;30.75;;;16.98;;
32333;SDS011;18810;53.040;8.850;2022-08-04T00:28:42;28.10;;;18.25;;
32333;SDS011;18810;53.040;8.850;2022-08-04T00:31:11;25.02;;;16.92;;
32333;SDS011;18810;53.040;8.850;2022-08-04T00:33:39;27.45;;;19.25;;
32333;SDS011;18810;53.040;8.850;2022-08-04T00:36:10;27.88;;;18.52;;
32333;SDS011;18810;53.040;8.850;2022-08-04T00:38:36;28.40;;;18.48;;
32333;SDS011;18810;53.040;8.850;2022-08-04T00:43:35;27.77;;;17.08;;
32333;SDS011;18810;53.040;8.850;2022-08-04T00:46:26;34.10;;;18.70;;
32333;SDS011;18810;53.040;8.850;2022-08-04T00:54:27;26.45;;;16.45;;
32333;SDS011;18810;53.040;8.850;2022-08-04T01:08:24;30.67;;;18.73;;
32333;SDS011;18810;53.040;8.850;2022-08-04T01:11:18;31.30;;;17.92;;
32333;SDS011;18810;53.040;8.850;2022-08-04T01:16:51;33.28;;;19.38;;
32333;SDS011;18810;53.040;8.850;2022-08-04T01:20:20;34.92;;;20.55;;
32333;SDS011;18810;53.040;8.850;2022-08-04T01:30:21;31.02;;;19.30;;
32333;SDS011;18810;53.040;8.850;2022-08-04T01:35:23;31.17;;;20.35;;
32333;SDS011;18810;53.040;8.850;2022-08-04T01:37:59;34.33;;;20.98;;
32333;SDS011;18810;53.040;8.850;2022-08-04T01:40:45;31.95;;;20.95;;
32333;SDS011;18810;53.040;8.850;2022-08-04T01:43:12;33.05;;;20.25;;
32333;SDS011;18810;53.040;8.850;2022-08-04T01:45:38;37.20;;;20.88;;
32333;SDS011;18810;53.040;8.850;2022-08-04T01:48:06;37.70;;;22.40;;
32333;SDS011;18810;53.040;8.850;2022-08-04T01:50:32;35.70;;;21.27;;
32333;SDS011;18810;53.040;8.850;2022-08-04T01:52:59;33.03;;;20.08;;
32333;SDS011;18810;53.040;8.850;2022-08-04T01:55:27;27.60;;;19.75;;
32333;SDS011;18810;53.040;8.850;2022-08-04T01:57:53;27.38;;;18.52;;
32333;SDS011;18810;53.040;8.850;2022-08-04T02:00:24;25.05;;;17.15;;
32333;SDS011;18810;53.040;8.850;2022-08-04T02:02:56;29.35;;;18.52;;
32333;SDS011;18810;53.040;8.850;2022-08-04T02:05:23;30.02;;;19.13;;
32333;SDS011;18810;53.040;8.850;2022-08-04T02:15:52;28.25;;;18.98;;
32333;SDS011;18810;53.040;8.850;2022-08-04T02:21:33;26.75;;;17.77;;
32333;SDS011;18810;53.040;8.850;2022-08-04T02:24:11;29.75;;;18.13;;
32333;SDS011;18810;53.040;8.850;2022-08-04T02:26:40;28.75;;;19.75;;
32333;SDS011;18810;53.040;8.850;2022-08-04T02:29:18;33.90;;;19.85;;
32333;SDS011;18810;53.040;8.850;2022-08-04T02:37:04;34.28;;;18.92;;
32333;SDS011;18810;53.040;8.850;2022-08-04T02:39:33;29.50;;;20.98;;
32333;SDS011;18810;53.040;8.850;2022-08-04T02:42:01;27.35;;;18.15;;
32333;SDS011;18810;53.040;8.850;2022-08-04T02:44:28;32.33;;;20.10;;
32333;SDS011;18810;53.040;8.850;2022-08-04T02:46:55;27.35;;;19.02;;
32333;SDS011;18810;53.040;8.850;2022-08-04T02:49:23;25.90;;;18.23;;
32333;SDS011;18810;53.040;8.850;2022-08-04T02:51:52;30.08;;;18.52;;
32333;SDS011;18810;53.040;8.850;2022-08-04T02:54:22;21.52;;;16.83;;
32333;SDS011;18810;53.040;8.850;2022-08-04T02:56:58;31.27;;;18.95;;
32333;SDS011;18810;53.040;8.850;2022-08-04T02:59:26;23.38;;;17.50;;
32333;SDS011;18810;53.040;8.850;2022-08-04T03:01:54;30.67;;;19.33;;
32333;SDS011;18810;53.040;8.850;2022-08-04T03:07:28;34.07;;;21.00;;
32333;SDS011;18810;53.040;8.850;2022-08-04T03:10:44;32.97;;;20.17;;
32333;SDS011;18810;53.040;8.850;2022-08-04T03:19:14;32.97;;;20.50;;
32333;SDS011;18810;53.040;8.850;2022-08-04T03:30:03;39.60;;;22.88;;
32333;SDS011;18810;53.040;8.850;2022-08-04T03:50:21;29.42;;;19.77;;
32333;SDS011;18810;53.040;8.850;2022-08-04T03:58:35;34.45;;;20.05;;
32333;SDS011;18810;53.040;8.850;2022-08-04T04:12:56;32.78;;;21.88;;
32333;SDS011;18810;53.040;8.850;2022-08-04T04:18:19;31.17;;;21.20;;
32333;SDS011;18810;53.040;8.850;2022-08-04T04:23:29;30.65;;;20.77;;
32333;SDS011;18810;53.040;8.850;2022-08-04T04:31:37;30.75;;;20.60;;
32333;SDS011;18810;53.040;8.850;2022-08-04T04:42:28;31.50;;;19.10;;
32333;SDS011;18810;53.040;8.850;2022-08-04T04:58:40;26.88;;;15.60;;
32333;SDS011;18810;53.040;8.850;2022-08-04T05:01:13;27.27;;;16.17;;
32333;SDS011;18810;53.040;8.850;2022-08-04T05:04:13;25.75;;;16.13;;
32333;SDS011;18810;53.040;8.850;2022-08-04T05:07:20;21.92;;;16.15;;
32333;SDS011;18810;53.040;8.850;2022-08-04T05:15:41;24.25;;;15.75;;
32333;SDS011;18810;53.040;8.850;2022-08-04T05:18:11;23.25;;;15.82;;
32333;SDS011;18810;53.040;8.850;2022-08-04T05:20:44;22.70;;;15.70;;
32333;SDS011;18810;53.040;8.850;2022-08-04T05:23:28;28.40;;;16.65;;
32333;SDS011;18810;53.040;8.850;2022-08-04T05:26:00;20.48;;;14.90;;
32333;SDS011;18810;53.040;8.850;2022-08-04T05:28:40;22.00;;;14.85;;
32333;SDS011;18810;53.040;8.850;2022-08-04T05:31:33;29.13;;;14.60;;
32333;SDS011;18810;53.040;8.850;2022-08-04T05:34:14;17.80;;;14.30;;
32333;SDS011;18810;53.040;8.850;2022-08-04T05:39:29;22.55;;;13.57;;
32333;SDS011;18810;53.040;8.850;2022-08-04T05:42:01;23.25;;;14.45;;
32333;SDS011;18810;53.040;8.850;2022-08-04T05:44:28;23.33;;;14.05;;
32333;SDS011;18810;53.040;8.850;2022-08-04T05:46:56;22.95;;;14.73;;
32333;SDS011;18810;53.040;8.850;2022-08-04T05:49:22;24.42;;;14.38;;
32333;SDS011;18810;53.040;8.850;2022-08-04T05:51:50;23.38;;;15.35;;
32333;SDS011;18810;53.040;8.850;2022-08-04T05:54:19;22.45;;;14.00;;
32333;SDS011;18810;53.040;8.850;2022-08-04T05:56:46;21.08;;;13.30;;
32333;SDS011;18810;53.040;8.850;2022-08-04T05:59:12;25.30;;;13.05;;
32333;SDS011;18810;53.040;8.850;2022-08-04T06:01:39;23.13;;;12.98;;
32333;SDS011;18810;53.040;8.850;2022-08-04T06:04:05;20.58;;;13.65;;
32333;SDS011;18810;53.040;8.850;2022-08-04T06:06:32;24.10;;;12.90;;
32333;SDS011;18810;53.040;8.850;2022-08-04T06:08:58;20.52;;;13.23;;
32333;SDS011;18810;53.040;8.850;2022-08-04T06:11:25;21.25;;;13.15;;
32333;SDS011;18810;53.040;8.850;2022-08-04T06:13:53;20.05;;;12.23;;
32333;SDS011;18810;53.040;8.850;2022-08-04T06:16:26;21.40;;;12.68;;
32333;SDS011;18810;53.040;8.850;2022-08-04T06:19:08;18.23;;;12.00;;
32333;SDS011;18810;53.040;8.850;2022-08-04T06:21:37;18.85;;;12.52;;
32333;SDS011;18810;53.040;8.850;2022-08-04T06:24:06;19.02;;;10.60;;
32333;SDS011;18810;53.040;8.850;2022-08-04T06:26:35;25.17;;;12.70;;
32333;SDS011;18810;53.040;8.850;2022-08-04T06:29:02;25.20;;;11.43;;
32333;SDS011;18810;53.040;8.850;2022-08-04T06:31:28;19.00;;;10.32;;
32333;SDS011;18810;53.040;8.850;2022-08-04T06:34:07;14.85;;;10.07;;
32333;SDS011;18810;53.040;8.850;2022-08-04T06:36:35;16.35;;;10.80;;
32333;SDS011;18810;53.040;8.850;2022-08-04T06:39:04;14.70;;;9.90;;
32333;SDS011;18810;53.040;8.850;2022-08-04T06:41:31;17.23;;;10.65;;
32333;SDS011;18810;53.040;8.850;2022-08-04T06:44:02;15.40;;;8.82;;
32333;SDS011;18810;53.040;8.850;2022-08-04T06:46:31;16.85;;;9.00;;
32333;SDS011;18810;53.040;8.850;2022-08-04T06:48:59;18.38;;;8.88;;
32333;SDS011;18810;53.040;8.850;2022-08-04T06:51:25;17.02;;;8.30;;
32333;SDS011;18810;53.040;8.850;2022-08-04T06:53:52;17.67;;;7.63;;
32333;SDS011;18810;53.040;8.850;2022-08-04T06:56:18;14.10;;;8.43;;
32333;SDS011;18810;53.040;8.850;2022-08-04T06:58:44;18.73;;;8.40;;
32333;SDS011;18810;53.040;8.850;2022-08-04T07:01:12;13.70;;;7.82;;
32333;SDS011;18810;53.040;8.850;2022-08-04T07:03:40;16.75;;;8.05;;
32333;SDS011;18810;53.040;8.850;2022-08-04T07:06:06;14.80;;;6.82;;
32333;SDS011;18810;53.040;8.850;2022-08-04T07:08:33;13.57;;;7.07;;
32333;SDS011;18810;53.040;8.850;2022-08-04T07:11:00;11.45;;;7.47;;
32333;SDS011;18810;53.040;8.850;2022-08-04T07:13:27;14.15;;;6.78;;
32333;SDS011;18810;53.040;8.850;2022-08-04T07:15:54;12.75;;;6.50;;
32333;SDS011;18810;53.040;8.850;2022-08-04T07:18:21;11.88;;;6.30;;
32333;SDS011;18810;53.040;8.850;2022-08-04T07:20:47;15.90;;;6.57;;
32333;SDS011;18810;53.040;8.850;2022-08-04T07:23:14;13.43;;;6.45;;
32333;SDS011;18810;53.040;8.850;2022-08-04T07:25:54;14.45;;;5.82;;
32333;SDS011;18810;53.040;8.850;2022-08-04T07:28:23;14.57;;;4.90;;
32333;SDS011;18810;53.040;8.850;2022-08-04T07:30:53;9.48;;;5.53;;
32333;SDS011;18810;53.040;8.850;2022-08-04T07:33:21;11.65;;;5.30;;
32333;SDS011;18810;53.040;8.850;2022-08-04T07:35:51;6.60;;;4.30;;
32333;SDS011;18810;53.040;8.850;2022-08-04T07:38:18;8.93;;;4.22;;
32333;SDS011;18810;53.040;8.850;2022-08-04T07:40:45;12.85;;;4.85;;
32333;SDS011;18810;53.040;8.850;2022-08-04T07:43:11;9.18;;;4.53;;
32333;SDS011;18810;53.040;8.850;2022-08-04T07:45:40;11.00;;;4.60;;
32333;SDS011;18810;53.040;8.850;2022-08-04T07:48:06;10.35;;;4.70;;
32333;SDS011;18810;53.040;8.850;2022-08-04T07:50:34;7.75;;;3.78;;
32333;SDS011;18810;53.040;8.850;2022-08-04T07:53:02;7.47;;;4.13;;
32333;SDS011;18810;53.040;8.850;2022-08-04T07:55:29;14.40;;;4.93;;
32333;SDS011;18810;53.040;8.850;2022-08-04T07:57:55;8.52;;;4.82;;
32333;SDS011;18810;53.040;8.850;2022-08-04T08:00:21;7.53;;;3.92;;
32333;SDS011;18810;53.040;8.850;2022-08-04T08:02:48;11.43;;;4.50;;
32333;SDS011;18810;53.040;8.850;2022-08-04T08:05:15;10.77;;;3.72;;
32333;SDS011;18810;53.040;8.850;2022-08-04T08:07:46;11.10;;;4.18;;
32333;SDS011;18810;53.040;8.850;2022-08-04T08:10:13;10.30;;;4.05;;
32333;SDS011;18810;53.040;8.850;2022-08-04T08:12:39;15.40;;;4.22;;
32333;SDS011;18810;53.040;8.850;2022-08-04T08:15:06;9.57;;;4.20;;
32333;SDS011;18810;53.040;8.850;2022-08-04T08:17:33;5.82;;;4.20;;
32333;SDS011;18810;53.040;8.850;2022-08-04T08:19:59;12.10;;;4.35;;
32333;SDS011;18810;53.040;8.850;2022-08-04T08:22:26;11.23;;;4.90;;
32333;SDS011;18810;53.040;8.850;2022-08-04T08:24:52;11.45;;;4.20;;
32333;SDS011;18810;53.040;8.850;2022-08-04T08:27:19;14.05;;;4.38;;
32333;SDS011;18810;53.040;8.850;2022-08-04T08:29:44;9.60;;;3.78;;
32333;SDS011;18810;53.040;8.850;2022-08-04T08:32:11;6.35;;;3.38;;
32333;SDS011;18810;53.040;8.850;2022-08-04T08:34:38;8.38;;;3.42;;
32333;SDS011;18810;53.040;8.850;2022-08-04T08:57:18;7.80;;;3.88;;
32333;SDS011;18810;53.040;8.850;2022-08-04T09:00:08;10.27;;;4.20;;
32333;SDS011;18810;53.040;8.850;2022-08-04T09:05:27;8.80;;;3.70;;
32333;SDS011;18810;53.040;8.850;2022-08-04T09:11:12;9.27;;;4.10;;
32333;SDS011;18810;53.040;8.850;2022-08-04T09:13:53;6.07;;;3.72;;
32333;SDS011;18810;53.040;8.850;2022-08-04T09:19:28;4.70;;;3.80;;
32333;SDS011;18810;53.040;8.850;2022-08-04T09:22:47;4.88;;;3.85;;
32333;SDS011;18810;53.040;8.850;2022-08-04T09:27:49;8.70;;;4.13;;
32333;SDS011;18810;53.040;8.850;2022-08-04T09:30:19;7.30;;;3.95;;
32333;SDS011;18810;53.040;8.850;2022-08-04T09:33:06;7.00;;;3.72;;
32333;SDS011;18810;53.040;8.850;2022-08-04T09:36:23;5.13;;;3.55;;
32333;SDS011;18810;53.040;8.850;2022-08-04T09:47:23;4.28;;;3.30;;
32333;SDS011;18810;53.040;8.850;2022-08-04T09:52:48;3.75;;;3.45;;
32333;SDS011;18810;53.040;8.850;2022-08-04T09:58:13;6.38;;;3.60;;
32333;SDS011;18810;53.040;8.850;2022-08-04T10:00:50;4.88;;;3.45;;
32333;SDS011;18810;53.040;8.850;2022-08-04T10:03:22;6.07;;;3.60;;
32333;SDS011;18810;53.040;8.850;2022-08-04T10:08:41;5.80;;;4.10;;
32333;SDS011;18810;53.040;8.850;2022-08-04T10:11:39;4.80;;;3.57;;
32333;SDS011;18810;53.040;8.850;2022-08-04T10:14:27;4.28;;;3.58;;
32333;SDS011;18810;53.040;8.850;2022-08-04T10:17:06;6.32;;;3.60;;
32333;SDS011;18810;53.040;8.850;2022-08-04T10:19:44;3.30;;;3.00;;
32333;SDS011;18810;53.040;8.850;2022-08-04T10:22:19;3.17;;;2.97;;
32333;SDS011;18810;53.040;8.850;2022-08-04T10:30:08;4.03;;;3.63;;
32333;SDS011;18810;53.040;8.850;2022-08-04T10:35:15;4.05;;;3.13;;
32333;SDS011;18810;53.040;8.850;2022-08-04T10:46:35;5.63;;;3.00;;
32333;SDS011;18810;53.040;8.850;2022-08-04T10:49:07;5.03;;;3.30;;
32333;SDS011;18810;53.040;8.850;2022-08-04T10:51:41;4.00;;;3.13;;
32333;SDS011;18810;53.040;8.850;2022-08-04T10:54:56;4.07;;;3.45;;
32333;SDS011;18810;53.040;8.850;2022-08-04T10:57:06;6.53;;;3.42;;
32333;SDS011;18810;53.040;8.850;2022-08-04T11:02:43;4.13;;;3.28;;
32333;SDS011;18810;53.040;8.850;2022-08-04T11:07:39;3.88;;;3.42;;
32333;SDS011;18810;53.040;8.850;2022-08-04T11:10:07;5.38;;;3.20;;
32333;SDS011;18810;53.040;8.850;2022-08-04T11:12:34;4.72;;;3.13;;
32333;SDS011;18810;53.040;8.850;2022-08-04T11:15:09;3.97;;;3.10;;
32333;SDS011;18810;53.040;8.850;2022-08-04T11:17:40;5.75;;;3.38;;
32333;SDS011;18810;53.040;8.850;2022-08-04T11:31:29;4.50;;;3.15;;
32333;SDS011;18810;53.040;8.850;2022-08-04T11:39:42;5.43;;;3.08;;
32333;SDS011;18810;53.040;8.850;2022-08-04T11:47:27;3.77;;;2.87;;
32333;SDS011;18810;53.040;8.850;2022-08-04T11:50:28;6.18;;;2.83;;
32333;SDS011;18810;53.040;8.850;2022-08-04T11:52:56;3.20;;;2.90;;
32333;SDS011;18810;53.040;8.850;2022-08-04T11:55:24;3.25;;;2.83;;
32333;SDS011;18810;53.040;8.850;2022-08-04T11:57:51;3.10;;;2.80;;
32333;SDS011;18810;53.040;8.850;2022-08-04T12:00:18;5.28;;;2.78;;
32333;SDS011;18810;53.040;8.850;2022-08-04T12:05:11;2.63;;;2.40;;
32333;SDS011;18810;53.040;8.850;2022-08-04T12:15:55;6.50;;;2.78;;
32333;SDS011;18810;53.040;8.850;2022-08-04T12:18:23;6.07;;;2.60;;
32333;SDS011;18810;53.040;8.850;2022-08-04T12:21:02;3.03;;;2.78;;
32333;SDS011;18810;53.040;8.850;2022-08-04T12:23:40;6.90;;;2.80;;
32333;SDS011;18810;53.040;8.850;2022-08-04T12:26:16;4.03;;;2.42;;
32333;SDS011;18810;53.040;8.850;2022-08-04T12:28:49;4.03;;;3.03;;
32333;SDS011;18810;53.040;8.850;2022-08-04T12:31:19;2.28;;;2.08;;
32333;SDS011;18810;53.040;8.850;2022-08-04T12:34:50;3.30;;;2.25;;
32333;SDS011;18810;53.040;8.850;2022-08-04T12:39:41;4.20;;;2.45;;
32333;SDS011;18810;53.040;8.850;2022-08-04T12:44:41;3.15;;;2.20;;
32333;SDS011;18810;53.040;8.850;2022-08-04T12:47:09;2.75;;;2.00;;
32333;SDS011;18810;53.040;8.850;2022-08-04T12:49:37;2.65;;;1.83;;
32333;SDS011;18810;53.040;8.850;2022-08-04T12:52:07;2.75;;;1.85;;
32333;SDS011;18810;53.040;8.850;2022-08-04T12:54:34;4.63;;;2.15;;
32333;SDS011;18810;53.040;8.850;2022-08-04T12:57:03;2.88;;;2.10;;
32333;SDS011;18810;53.040;8.850;2022-08-04T12:59:42;2.45;;;2.10;;
32333;SDS011;18810;53.040;8.850;2022-08-04T13:02:11;3.33;;;2.25;;
32333;SDS011;18810;53.040;8.850;2022-08-04T13:04:50;4.90;;;2.10;;
32333;SDS011;18810;53.040;8.850;2022-08-04T13:07:19;3.20;;;2.60;;
32333;SDS011;18810;53.040;8.850;2022-08-04T13:09:47;5.00;;;2.70;;
32333;SDS011;18810;53.040;8.850;2022-08-04T13:12:16;4.55;;;2.40;;
32333;SDS011;18810;53.040;8.850;2022-08-04T13:14:45;4.13;;;2.50;;
32333;SDS011;18810;53.040;8.850;2022-08-04T13:17:14;3.10;;;2.15;;
32333;SDS011;18810;53.040;8.850;2022-08-04T13:19:47;3.30;;;2.30;;
32333;SDS011;18810;53.040;8.850;2022-08-04T13:22:22;4.57;;;2.20;;
32333;SDS011;18810;53.040;8.850;2022-08-04T13:24:50;2.38;;;2.17;;
32333;SDS011;18810;53.040;8.850;2022-08-04T13:27:16;4.60;;;2.00;;
32333;SDS011;18810;53.040;8.850;2022-08-04T13:29:44;3.10;;;2.00;;
32333;SDS011;18810;53.040;8.850;2022-08-04T13:32:16;3.08;;;2.53;;
32333;SDS011;18810;53.040;8.850;2022-08-04T13:34:46;2.47;;;2.28;;
32333;SDS011;18810;53.040;8.850;2022-08-04T13:37:15;3.22;;;2.55;;
32333;SDS011;18810;53.040;8.850;2022-08-04T13:39:45;3.25;;;2.22;;
32333;SDS011;18810;53.040;8.850;2022-08-04T13:42:13;2.88;;;2.50;;
32333;SDS011;18810;53.040;8.850;2022-08-04T13:44:42;4.10;;;2.45;;
32333;SDS011;18810;53.040;8.850;2022-08-04T13:47:20;5.03;;;2.70;;
32333;SDS011;18810;53.040;8.850;2022-08-04T13:52:35;3.83;;;2.70;;
32333;SDS011;18810;53.040;8.850;2022-08-04T13:55:01;6.65;;;3.10;;
32333;SDS011;18810;53.040;8.850;2022-08-04T13:57:31;6.22;;;3.53;;
32333;SDS011;18810;53.040;8.850;2022-08-04T14:00:03;5.43;;;3.75;;
32333;SDS011;18810;53.040;8.850;2022-08-04T14:05:23;6.43;;;4.47;;
32333;SDS011;18810;53.040;8.850;2022-08-04T14:07:57;15.98;;;5.38;;
32333;SDS011;18810;53.040;8.850;2022-08-04T14:10:31;9.80;;;5.20;;
32333;SDS011;18810;53.040;8.850;2022-08-04T14:12:58;9.68;;;5.20;;
32333;SDS011;18810;53.040;8.850;2022-08-04T14:15:30;12.23;;;5.20;;
32333;SDS011;18810;53.040;8.850;2022-08-04T14:23:39;14.98;;;5.97;;
32333;SDS011;18810;53.040;8.850;2022-08-04T14:31:22;18.90;;;4.50;;
32333;SDS011;18810;53.040;8.850;2022-08-04T14:33:49;13.73;;;4.00;;
32333;SDS011;18810;53.040;8.850;2022-08-04T14:36:16;11.95;;;4.05;;
32333;SDS011;18810;53.040;8.850;2022-08-04T14:38:47;9.32;;;5.10;;
32333;SDS011;18810;53.040;8.850;2022-08-04T14:41:21;13.75;;;5.72;;
32333;SDS011;18810;53.040;8.850;2022-08-04T14:43:53;18.45;;;8.18;;
32333;SDS011;18810;53.040;8.850;2022-08-04T14:46:21;44.10;;;11.55;;
32333;SDS011;18810;53.040;8.850;2022-08-04T14:51:37;12.00;;;7.95;;
32333;SDS011;18810;53.040;8.850;2022-08-04T14:54:04;12.55;;;8.00;;
32333;SDS011;18810;53.040;8.850;2022-08-04T14:56:30;11.32;;;7.60;;
32333;SDS011;18810;53.040;8.850;2022-08-04T14:59:01;11.00;;;7.00;;
32333;SDS011;18810;53.040;8.850;2022-08-04T15:01:29;10.25;;;6.63;;
32333;SDS011;18810;53.040;8.850;2022-08-04T15:03:55;10.40;;;6.32;;
32333;SDS011;18810;53.040;8.850;2022-08-04T15:06:23;10.60;;;6.43;;
32333;SDS011;18810;53.040;8.850;2022-08-04T15:08:51;10.27;;;5.97;;
32333;SDS011;18810;53.040;8.850;2022-08-04T15:11:17;8.50;;;6.00;;
32333;SDS011;18810;53.040;8.850;2022-08-04T15:13:43;9.05;;;6.22;;
32333;SDS011;18810;53.040;8.850;2022-08-04T15:16:12;12.05;;;6.65;;
32333;SDS011;18810;53.040;8.850;2022-08-04T15:18:39;12.05;;;6.57;;
32333;SDS011;18810;53.040;8.850;2022-08-04T15:21:06;11.30;;;6.97;;
32333;SDS011;18810;53.040;8.850;2022-08-04T15:23:32;13.32;;;7.18;;
32333;SDS011;18810;53.040;8.850;2022-08-04T15:25:59;10.73;;;6.95;;
32333;SDS011;18810;53.040;8.850;2022-08-04T15:28:27;13.07;;;7.82;;
32333;SDS011;18810;53.040;8.850;2022-08-04T15:30:55;16.42;;;8.30;;
32333;SDS011;18810;53.040;8.850;2022-08-04T15:33:21;11.35;;;7.43;;
32333;SDS011;18810;53.040;8.850;2022-08-04T15:35:54;14.18;;;8.32;;
32333;SDS011;18810;53.040;8.850;2022-08-04T15:38:41;11.10;;;8.18;;
32333;SDS011;18810;53.040;8.850;2022-08-04T15:41:25;12.68;;;8.20;;
32333;SDS011;18810;53.040;8.850;2022-08-04T15:49:23;13.07;;;8.57;;
32333;SDS011;18810;53.040;8.850;2022-08-04T15:52:02;16.00;;;9.23;;
32333;SDS011;18810;53.040;8.850;2022-08-04T15:54:40;18.27;;;9.77;;
32333;SDS011;18810;53.040;8.850;2022-08-04T15:57:06;13.38;;;9.68;;
32333;SDS011;18810;53.040;8.850;2022-08-04T16:07:55;11.02;;;8.10;;
32333;SDS011;18810;53.040;8.850;2022-08-04T16:12:54;10.43;;;7.18;;
32333;SDS011;18810;53.040;8.850;2022-08-04T16:18:09;10.68;;;7.85;;
32333;SDS011;18810;53.040;8.850;2022-08-04T16:20:36;11.63;;;7.38;;
32333;SDS011;18810;53.040;8.850;2022-08-04T16:23:10;11.32;;;5.63;;
32333;SDS011;18810;53.040;8.850;2022-08-04T16:26:00;9.63;;;5.40;;
32333;SDS011;18810;53.040;8.850;2022-08-04T16:28:38;11.48;;;5.60;;
32333;SDS011;18810;53.040;8.850;2022-08-04T16:31:07;9.95;;;5.00;;
32333;SDS011;18810;53.040;8.850;2022-08-04T16:33:34;10.95;;;4.72;;
32333;SDS011;18810;53.040;8.850;2022-08-04T16:36:01;7.35;;;4.00;;
32333;SDS011;18810;53.040;8.850;2022-08-04T16:38:27;8.82;;;4.32;;
32333;SDS011;18810;53.040;8.850;2022-08-04T16:40:57;11.50;;;4.47;;
32333;SDS011;18810;53.040;8.850;2022-08-04T16:45:55;9.30;;;4.55;;
32333;SDS011;18810;53.040;8.850;2022-08-04T16:48:30;5.80;;;4.80;;
32333;SDS011;18810;53.040;8.850;2022-08-04T16:53:35;8.68;;;4.78;;
32333;SDS011;18810;53.040;8.850;2022-08-04T16:56:03;10.40;;;4.38;;
32333;SDS011;18810;53.040;8.850;2022-08-04T16:58:31;6.95;;;4.50;;
32333;SDS011;18810;53.040;8.850;2022-08-04T17:01:05;7.70;;;4.00;;
32333;SDS011;18810;53.040;8.850;2022-08-04T17:03:32;11.07;;;4.18;;
32333;SDS011;18810;53.040;8.850;2022-08-04T17:06:12;6.30;;;4.20;;
32333;SDS011;18810;53.040;8.850;2022-08-04T17:08:39;7.53;;;4.30;;
32333;SDS011;18810;53.040;8.850;2022-08-04T17:11:05;5.22;;;3.70;;
32333;SDS011;18810;53.040;8.850;2022-08-04T17:13:35;6.03;;;4.03;;
32333;SDS011;18810;53.040;8.850;2022-08-04T17:16:12;7.55;;;3.70;;
32333;SDS011;18810;53.040;8.850;2022-08-04T17:18:40;4.80;;;3.83;;
32333;SDS011;18810;53.040;8.850;2022-08-04T17:21:09;8.10;;;3.50;;
32333;SDS011;18810;53.040;8.850;2022-08-04T17:23:52;9.00;;;4.25;;
32333;SDS011;18810;53.040;8.850;2022-08-04T17:26:22;4.75;;;3.67;;
32333;SDS011;18810;53.040;8.850;2022-08-04T17:28:50;7.80;;;3.63;;
32333;SDS011;18810;53.040;8.850;2022-08-04T17:31:19;5.72;;;3.28;;
32333;SDS011;18810;53.040;8.850;2022-08-04T17:33:48;4.32;;;3.22;;
32333;SDS011;18810;53.040;8.850;2022-08-04T17:36:17;7.53;;;3.65;;
32333;SDS011;18810;53.040;8.850;2022-08-04T17:41:23;3.85;;;3.40;;
32333;SDS011;18810;53.040;8.850;2022-08-04T17:46:20;5.47;;;3.60;;
32333;SDS011;18810;53.040;8.850;2022-08-04T17:48:59;5.28;;;3.47;;
32333;SDS011;18810;53.040;8.850;2022-08-04T17:51:39;5.47;;;3.70;;
32333;SDS011;18810;53.040;8.850;2022-08-04T17:54:06;4.93;;;3.35;;
32333;SDS011;18810;53.040;8.850;2022-08-04T17:56:39;4.63;;;2.70;;
32333;SDS011;18810;53.040;8.850;2022-08-04T17:59:13;7.13;;;3.28;;
32333;SDS011;18810;53.040;8.850;2022-08-04T18:01:46;4.40;;;2.70;;
32333;SDS011;18810;53.040;8.850;2022-08-04T18:09:38;3.90;;;2.67;;
32333;SDS011;18810;53.040;8.850;2022-08-04T18:12:21;5.57;;;3.08;;
32333;SDS011;18810;53.040;8.850;2022-08-04T18:14:48;5.07;;;2.70;;
32333;SDS011;18810;53.040;8.850;2022-08-04T18:17:36;3.72;;;2.70;;
32333;SDS011;18810;53.040;8.850;2022-08-04T18:20:07;4.53;;;2.95;;
32333;SDS011;18810;53.040;8.850;2022-08-04T18:22:35;7.63;;;3.45;;
32333;SDS011;18810;53.040;8.850;2022-08-04T18:25:01;5.47;;;2.70;;
32333;SDS011;18810;53.040;8.850;2022-08-04T18:27:28;4.88;;;3.40;;
32333;SDS011;18810;53.040;8.850;2022-08-04T18:29:55;4.15;;;3.10;;
32333;SDS011;18810;53.040;8.850;2022-08-04T18:32:21;4.45;;;2.90;;
32333;SDS011;18810;53.040;8.850;2022-08-04T18:34:50;4.68;;;2.92;;
32333;SDS011;18810;53.040;8.850;2022-08-04T18:37:16;4.30;;;2.97;;
32333;SDS011;18810;53.040;8.850;2022-08-04T18:39:42;5.70;;;3.15;;
32333;SDS011;18810;53.040;8.850;2022-08-04T18:42:08;5.13;;;3.10;;
32333;SDS011;18810;53.040;8.850;2022-08-04T18:44:34;6.85;;;3.25;;
32333;SDS011;18810;53.040;8.850;2022-08-04T18:47:00;4.03;;;3.08;;
32333;SDS011;18810;53.040;8.850;2022-08-04T18:49:27;6.43;;;3.72;;
32333;SDS011;18810;53.040;8.850;2022-08-04T18:51:54;6.90;;;3.67;;
32333;SDS011;18810;53.040;8.850;2022-08-04T18:54:20;5.60;;;3.25;;
32333;SDS011;18810;53.040;8.850;2022-08-04T18:56:48;7.65;;;3.55;;
32333;SDS011;18810;53.040;8.850;2022-08-04T18:59:15;6.80;;;4.05;;
32333;SDS011;18810;53.040;8.850;2022-08-04T19:01:41;9.20;;;4.47;;
32333;SDS011;18810;53.040;8.850;2022-08-04T19:04:08;6.32;;;3.60;;
32333;SDS011;18810;53.040;8.850;2022-08-04T19:06:34;9.27;;;3.78;;
32333;SDS011;18810;53.040;8.850;2022-08-04T19:09:03;5.72;;;3.58;;
32333;SDS011;18810;53.040;8.850;2022-08-04T19:11:30;6.07;;;3.72;;
32333;SDS011;18810;53.040;8.850;2022-08-04T19:13:57;9.77;;;4.32;;
32333;SDS011;18810;53.040;8.850;2022-08-04T19:16:23;9.07;;;3.72;;
32333;SDS011;18810;53.040;8.850;2022-08-04T19:18:49;10.43;;;4.10;;
32333;SDS011;18810;53.040;8.850;2022-08-04T19:21:15;11.27;;;3.92;;
32333;SDS011;18810;53.040;8.850;2022-08-04T19:23:41;14.18;;;5.03;;
32333;SDS011;18810;53.040;8.850;2022-08-04T19:26:06;12.82;;;4.95;;
32333;SDS011;18810;53.040;8.850;2022-08-04T19:28:33;12.30;;;5.28;;
32333;SDS011;18810;53.040;8.850;2022-08-04T19:31:00;17.50;;;5.07;;
32333;SDS011;18810;53.040;8.850;2022-08-04T19:33:27;13.10;;;5.30;;
32333;SDS011;18810;53.040;8.850;2022-08-04T19:35:53;15.25;;;6.80;;
32333;SDS011;18810;53.040;8.850;2022-08-04T19:38:19;13.88;;;6.93;;
32333;SDS011;18810;53.040;8.850;2022-08-04T19:40:45;20.90;;;6.38;;
32333;SDS011;18810;53.040;8.850;2022-08-04T19:43:11;13.52;;;6.20;;
32333;SDS011;18810;53.040;8.850;2022-08-04T19:45:37;15.57;;;6.85;;
32333;SDS011;18810;53.040;8.850;2022-08-04T19:48:03;13.43;;;6.50;;
32333;SDS011;18810;53.040;8.850;2022-08-04T19:50:29;20.13;;;7.07;;
32333;SDS011;18810;53.040;8.850;2022-08-04T19:52:56;16.10;;;7.85;;
32333;SDS011;18810;53.040;8.850;2022-08-04T19:55:23;20.05;;;8.93;;
32333;SDS011;18810;53.040;8.850;2022-08-04T19:57:50;17.52;;;9.27;;
32333;SDS011;18810;53.040;8.850;2022-08-04T20:00:16;19.25;;;9.38;;
32333;SDS011;18810;53.040;8.850;2022-08-04T20:02:44;19.38;;;9.40;;
32333;SDS011;18810;53.040;8.850;2022-08-04T20:05:10;18.42;;;8.88;;
32333;SDS011;18810;53.040;8.850;2022-08-04T20:07:37;21.00;;;8.68;;
32333;SDS011;18810;53.040;8.850;2022-08-04T20:10:03;17.25;;;9.25;;
32333;SDS011;18810;53.040;8.850;2022-08-04T20:12:30;18.08;;;10.25;;